KASX/ASX METAR and TAF weather

Enter ICAO airport designator
Station Type Date Time Source
KASX METAR 2022/06/30 12:53 UTC NOAA

KASX 301253Z AUTO 20014KT 10SM FEW048 BKN090 OVC110 21/17 A2975 RMK AO2 RAB1156E33 SLP075 P0000 T02110172


Station Type Date Time Source
KASX Decoded METAR 2022/06/30 12:53 UTC NOAA

ASHLAND KENNEDY MEMORIAL, WI, United States (KASX) 46-33N 090-55W 251M
Jun 30, 2022 - 08:53 AM EDT / 2022.06.30 1253 UTC
Wind: from the SSW (200 degrees) at 16 MPH (14 KT):0
Visibility: 10 mile(s):0
Sky conditions: overcast
Precipitation last hour: A trace
Temperature: 70.0 F (21.1 C)
Dew Point: 63.0 F (17.2 C)
Relative Humidity: 78%
Pressure (altimeter): 29.75 in. Hg (1007 hPa)
ob: KASX 301253Z AUTO 20014KT 10SM FEW048 BKN090 OVC110 21/17 A2975 RMK AO2 RAB1156E33 SLP075 P0000 T02110172
cycle: 13

Station Type Date Time Source
KASX TAF UTC NOAA

Error!

Example: see airport list